sensor_id;sensor_type;location;lat;lon;timestamp;pressure;altitude;pressure_sealevel;temperature;humidity
20043;BME280;10182;52.896;6.496;2022-10-18T00:00:14;102411.34;;;12.53;100.00
20043;BME280;10182;52.896;6.496;2022-10-18T00:05:17;102407.84;;;12.52;100.00
20043;BME280;10182;52.896;6.496;2022-10-18T00:10:19;102407.00;;;12.50;100.00
20043;BME280;10182;52.896;6.496;2022-10-18T00:15:20;102408.84;;;12.48;100.00
20043;BME280;10182;52.896;6.496;2022-10-18T00:20:23;102415.13;;;12.46;100.00
20043;BME280;10182;52.896;6.496;2022-10-18T00:25:25;102421.25;;;12.48;100.00
20043;BME280;10182;52.896;6.496;2022-10-18T00:30:26;102408.00;;;12.46;100.00
20043;BME280;10182;52.896;6.496;2022-10-18T00:35:29;102416.97;;;12.42;100.00
20043;BME280;10182;52.896;6.496;2022-10-18T00:40:31;102418.78;;;12.42;100.00
20043;BME280;10182;52.896;6.496;2022-10-18T00:45:33;102413.47;;;12.42;100.00
20043;BME280;10182;52.896;6.496;2022-10-18T00:50:36;102414.31;;;12.42;100.00
20043;BME280;10182;52.896;6.496;2022-10-18T00:55:38;102418.81;;;12.40;100.00
20043;BME280;10182;52.896;6.496;2022-10-18T01:00:39;102426.75;;;12.42;100.00
20043;BME280;10182;52.896;6.496;2022-10-18T01:05:44;102428.56;;;12.40;100.00
20043;BME280;10182;52.896;6.496;2022-10-18T01:10:53;102426.78;;;12.40;100.00
20043;BME280;10182;52.896;6.496;2022-10-18T01:16:12;102433.91;;;12.38;100.00
20043;BME280;10182;52.896;6.496;2022-10-18T01:27:23;102427.91;;;12.31;100.00
20043;BME280;10182;52.896;6.496;2022-10-18T01:32:31;102428.88;;;12.29;100.00
20043;BME280;10182;52.896;6.496;2022-10-18T01:37:36;102414.03;;;12.20;100.00
20043;BME280;10182;52.896;6.496;2022-10-18T01:42:39;102423.88;;;12.16;100.00
20043;BME280;10182;52.896;6.496;2022-10-18T01:47:43;102424.91;;;12.11;100.00
20043;BME280;10182;52.896;6.496;2022-10-18T01:52:47;102431.34;;;12.02;100.00
20043;BME280;10182;52.896;6.496;2022-10-18T01:57:55;102428.78;;;11.99;100.00
20043;BME280;10182;52.896;6.496;2022-10-18T02:03:03;102418.38;;;11.88;100.00
20043;BME280;10182;52.896;6.496;2022-10-18T02:08:13;102429.00;;;11.88;100.00
20043;BME280;10182;52.896;6.496;2022-10-18T02:13:22;102427.25;;;11.87;100.00
20043;BME280;10182;52.896;6.496;2022-10-18T02:18:29;102423.78;;;11.83;100.00
20043;BME280;10182;52.896;6.496;2022-10-18T02:23:35;102423.06;;;11.78;100.00
20043;BME280;10182;52.896;6.496;2022-10-18T02:28:37;102424.06;;;11.73;100.00
20043;BME280;10182;52.896;6.496;2022-10-18T02:33:44;102430.19;;;11.76;100.00
20043;BME280;10182;52.896;6.496;2022-10-18T02:38:52;102422.97;;;11.81;100.00
20043;BME280;10182;52.896;6.496;2022-10-18T02:43:55;102415.78;;;11.85;100.00
20043;BME280;10182;52.896;6.496;2022-10-18T02:48:58;102422.91;;;11.84;100.00
20043;BME280;10182;52.896;6.496;2022-10-18T02:54:00;102433.66;;;11.80;100.00
20043;BME280;10182;52.896;6.496;2022-10-18T02:59:01;102429.28;;;11.77;100.00
20043;BME280;10182;52.896;6.496;2022-10-18T03:04:08;102428.47;;;11.74;100.00
20043;BME280;10182;52.896;6.496;2022-10-18T03:09:09;102430.34;;;11.70;100.00
20043;BME280;10182;52.896;6.496;2022-10-18T03:14:11;102435.72;;;11.67;100.00
20043;BME280;10182;52.896;6.496;2022-10-18T03:19:14;102435.78;;;11.64;100.00
20043;BME280;10182;52.896;6.496;2022-10-18T03:24:16;102439.44;;;11.60;100.00
20043;BME280;10182;52.896;6.496;2022-10-18T03:29:18;102432.41;;;11.57;100.00
20043;BME280;10182;52.896;6.496;2022-10-18T03:34:21;102434.25;;;11.54;100.00
20043;BME280;10182;52.896;6.496;2022-10-18T03:39:23;102435.16;;;11.54;100.00
20043;BME280;10182;52.896;6.496;2022-10-18T03:44:24;102432.63;;;11.48;100.00
20043;BME280;10182;52.896;6.496;2022-10-18T03:49:28;102422.94;;;11.45;100.00
20043;BME280;10182;52.896;6.496;2022-10-18T03:54:30;102422.16;;;11.42;100.00
20043;BME280;10182;52.896;6.496;2022-10-18T03:59:32;102435.47;;;11.40;100.00
20043;BME280;10182;52.896;6.496;2022-10-18T04:04:35;102437.19;;;11.41;100.00
20043;BME280;10182;52.896;6.496;2022-10-18T04:09:36;102436.47;;;11.36;100.00
20043;BME280;10182;52.896;6.496;2022-10-18T04:14:38;102435.56;;;11.35;100.00
20043;BME280;10182;52.896;6.496;2022-10-18T04:19:41;102435.59;;;11.34;100.00
20043;BME280;10182;52.896;6.496;2022-10-18T04:24:43;102449.78;;;11.33;100.00
20043;BME280;10182;52.896;6.496;2022-10-18T04:29:44;102448.09;;;11.29;100.00
20043;BME280;10182;52.896;6.496;2022-10-18T04:34:47;102442.81;;;11.27;100.00
20043;BME280;10182;52.896;6.496;2022-10-18T04:39:49;102443.75;;;11.26;100.00
20043;BME280;10182;52.896;6.496;2022-10-18T04:44:51;102445.53;;;11.26;100.00
20043;BME280;10182;52.896;6.496;2022-10-18T04:49:54;102449.06;;;11.25;100.00
20043;BME280;10182;52.896;6.496;2022-10-18T04:54:55;102464.16;;;11.23;100.00
20043;BME280;10182;52.896;6.496;2022-10-18T04:59:57;102448.31;;;11.20;100.00
20043;BME280;10182;52.896;6.496;2022-10-18T05:05:00;102459.91;;;11.14;100.00
20043;BME280;10182;52.896;6.496;2022-10-18T05:10:02;102446.00;;;11.04;100.00
20043;BME280;10182;52.896;6.496;2022-10-18T05:15:04;102454.06;;;10.99;100.00
20043;BME280;10182;52.896;6.496;2022-10-18T05:20:08;102468.38;;;10.91;100.00
20043;BME280;10182;52.896;6.496;2022-10-18T05:25:10;102462.22;;;10.89;100.00
20043;BME280;10182;52.896;6.496;2022-10-18T05:30:12;102471.97;;;10.87;100.00
20043;BME280;10182;52.896;6.496;2022-10-18T05:35:15;102464.19;;;10.79;100.00
20043;BME280;10182;52.896;6.496;2022-10-18T05:40:16;102460.69;;;10.77;100.00
20043;BME280;10182;52.896;6.496;2022-10-18T05:45:18;102465.28;;;10.69;100.00
20043;BME280;10182;52.896;6.496;2022-10-18T05:50:21;102472.41;;;10.66;100.00
20043;BME280;10182;52.896;6.496;2022-10-18T05:55:23;102478.63;;;10.64;100.00
20043;BME280;10182;52.896;6.496;2022-10-18T06:00:25;102479.59;;;10.60;100.00
20043;BME280;10182;52.896;6.496;2022-10-18T06:05:28;102484.97;;;10.57;100.00
20043;BME280;10182;52.896;6.496;2022-10-18T06:10:29;102495.59;;;10.55;100.00
20043;BME280;10182;52.896;6.496;2022-10-18T06:15:31;102500.84;;;10.57;100.00
20043;BME280;10182;52.896;6.496;2022-10-18T06:20:34;102485.06;;;10.50;100.00
20043;BME280;10182;52.896;6.496;2022-10-18T06:25:36;102508.94;;;10.49;100.00
20043;BME280;10182;52.896;6.496;2022-10-18T06:30:37;102512.50;;;10.46;100.00
20043;BME280;10182;52.896;6.496;2022-10-18T06:35:52;102513.41;;;10.45;100.00
20043;BME280;10182;52.896;6.496;2022-10-18T06:40:56;102509.06;;;10.41;100.00
20043;BME280;10182;52.896;6.496;2022-10-18T06:45:59;102507.38;;;10.37;100.00
20043;BME280;10182;52.896;6.496;2022-10-18T06:51:04;102527.88;;;10.24;100.00
20043;BME280;10182;52.896;6.496;2022-10-18T06:56:09;102530.59;;;10.21;100.00
20043;BME280;10182;52.896;6.496;2022-10-18T07:01:12;102520.97;;;10.14;100.00
20043;BME280;10182;52.896;6.496;2022-10-18T07:06:17;102536.00;;;10.13;100.00
20043;BME280;10182;52.896;6.496;2022-10-18T07:11:20;102526.25;;;10.14;100.00
20043;BME280;10182;52.896;6.496;2022-10-18T07:16:23;102544.88;;;10.09;100.00
20043;BME280;10182;52.896;6.496;2022-10-18T07:21:26;102561.66;;;10.08;100.00
20043;BME280;10182;52.896;6.496;2022-10-18T07:26:30;102565.19;;;10.10;100.00
20043;BME280;10182;52.896;6.496;2022-10-18T07:31:33;102581.97;;;10.09;100.00
20043;BME280;10182;52.896;6.496;2022-10-18T07:36:36;102558.00;;;10.15;100.00
20043;BME280;10182;52.896;6.496;2022-10-18T07:41:38;102575.59;;;10.21;100.00
20043;BME280;10182;52.896;6.496;2022-10-18T07:46:39;102583.34;;;10.35;100.00
20043;BME280;10182;52.896;6.496;2022-10-18T07:51:42;102608.16;;;10.28;100.00
20043;BME280;10182;52.896;6.496;2022-10-18T07:56:44;102610.63;;;10.42;100.00
20043;BME280;10182;52.896;6.496;2022-10-18T08:01:46;102600.81;;;10.45;100.00
20043;BME280;10182;52.896;6.496;2022-10-18T08:06:49;102612.09;;;10.60;100.00
20043;BME280;10182;52.896;6.496;2022-10-18T08:11:51;102607.75;;;10.56;100.00
20043;BME280;10182;52.896;6.496;2022-10-18T08:16:54;102613.72;;;10.67;100.00
20043;BME280;10182;52.896;6.496;2022-10-18T08:21:57;102604.19;;;10.57;100.00
20043;BME280;10182;52.896;6.496;2022-10-18T08:26:58;102624.41;;;10.62;100.00
20043;BME280;10182;52.896;6.496;2022-10-18T08:32:02;102618.78;;;10.81;100.00
20043;BME280;10182;52.896;6.496;2022-10-18T08:37:05;102619.50;;;10.89;100.00
20043;BME280;10182;52.896;6.496;2022-10-18T08:42:26;102620.00;;;11.10;100.00
20043;BME280;10182;52.896;6.496;2022-10-18T08:47:33;102620.66;;;11.23;100.00
20043;BME280;10182;52.896;6.496;2022-10-18T08:52:43;102626.75;;;11.28;100.00
20043;BME280;10182;52.896;6.496;2022-10-18T08:57:49;102637.06;;;11.43;100.00
20043;BME280;10182;52.896;6.496;2022-10-18T09:03:11;102643.69;;;11.66;100.00
20043;BME280;10182;52.896;6.496;2022-10-18T09:08:40;102646.88;;;11.82;100.00
20043;BME280;10182;52.896;6.496;2022-10-18T09:14:08;102630.38;;;12.10;100.00
20043;BME280;10182;52.896;6.496;2022-10-18T09:19:21;102641.31;;;12.33;100.00
20043;BME280;10182;52.896;6.496;2022-10-18T09:24:34;102637.31;;;12.51;100.00
20043;BME280;10182;52.896;6.496;2022-10-18T09:29:47;102643.97;;;12.69;100.00
20043;BME280;10182;52.896;6.496;2022-10-18T09:34:52;102638.22;;;12.86;100.00
20043;BME280;10182;52.896;6.496;2022-10-18T09:40:02;102640.38;;;13.05;100.00
20043;BME280;10182;52.896;6.496;2022-10-18T09:45:14;102626.53;;;13.25;100.00
20043;BME280;10182;52.896;6.496;2022-10-18T09:50:24;102641.31;;;13.37;100.00
20043;BME280;10182;52.896;6.496;2022-10-18T09:55:34;102645.88;;;13.63;100.00
20043;BME280;10182;52.896;6.496;2022-10-18T10:00:40;102650.22;;;13.67;100.00
20043;BME280;10182;52.896;6.496;2022-10-18T10:05:45;102654.94;;;13.87;100.00
20043;BME280;10182;52.896;6.496;2022-10-18T10:10:48;102643.34;;;13.88;100.00
20043;BME280;10182;52.896;6.496;2022-10-18T10:15:53;102663.19;;;14.08;100.00
20043;BME280;10182;52.896;6.496;2022-10-18T10:20:56;102656.69;;;14.17;100.00
20043;BME280;10182;52.896;6.496;2022-10-18T10:26:03;102665.09;;;14.33;100.00
20043;BME280;10182;52.896;6.496;2022-10-18T10:31:17;102676.66;;;14.32;100.00
20043;BME280;10182;52.896;6.496;2022-10-18T10:36:20;102679.50;;;14.27;100.00
20043;BME280;10182;52.896;6.496;2022-10-18T10:41:23;102676.09;;;14.22;100.00
20043;BME280;10182;52.896;6.496;2022-10-18T10:46:32;102675.00;;;14.28;100.00
20043;BME280;10182;52.896;6.496;2022-10-18T10:51:37;102685.78;;;14.25;100.00
20043;BME280;10182;52.896;6.496;2022-10-18T10:56:55;102697.75;;;14.11;100.00
20043;BME280;10182;52.896;6.496;2022-10-18T11:02:15;102696.56;;;14.20;100.00
20043;BME280;10182;52.896;6.496;2022-10-18T11:07:22;102704.13;;;14.05;100.00
20043;BME280;10182;52.896;6.496;2022-10-18T11:12:31;102704.25;;;14.01;100.00
20043;BME280;10182;52.896;6.496;2022-10-18T11:17:38;102698.72;;;14.37;99.14
20043;BME280;10182;52.896;6.496;2022-10-18T11:22:46;102694.03;;;14.74;95.77
20043;BME280;10182;52.896;6.496;2022-10-18T11:27:57;102686.53;;;15.10;97.34
20043;BME280;10182;52.896;6.496;2022-10-18T11:33:08;102692.75;;;15.36;94.73
20043;BME280;10182;52.896;6.496;2022-10-18T11:38:24;102689.22;;;15.35;91.60
20043;BME280;10182;52.896;6.496;2022-10-18T11:43:36;102689.16;;;15.37;90.82
20043;BME280;10182;52.896;6.496;2022-10-18T11:48:54;102691.56;;;15.19;89.51
20043;BME280;10182;52.896;6.496;2022-10-18T11:54:14;102687.84;;;14.98;91.05
20043;BME280;10182;52.896;6.496;2022-10-18T11:59:27;102688.00;;;14.94;90.67
20043;BME280;10182;52.896;6.496;2022-10-18T12:04:33;102677.00;;;15.03;90.50
20043;BME280;10182;52.896;6.496;2022-10-18T12:09:39;102681.53;;;15.01;90.51
20043;BME280;10182;52.896;6.496;2022-10-18T12:14:48;102688.88;;;15.19;85.18
20043;BME280;10182;52.896;6.496;2022-10-18T12:19:52;102680.28;;;15.36;84.09
20043;BME280;10182;52.896;6.496;2022-10-18T12:24:56;102692.59;;;15.40;83.07
20043;BME280;10182;52.896;6.496;2022-10-18T12:30:03;102686.50;;;15.37;81.65
20043;BME280;10182;52.896;6.496;2022-10-18T12:35:10;102676.47;;;15.44;85.53
20043;BME280;10182;52.896;6.496;2022-10-18T12:40:16;102686.44;;;15.38;83.66
20043;BME280;10182;52.896;6.496;2022-10-18T12:45:26;102680.53;;;15.03;85.57
20043;BME280;10182;52.896;6.496;2022-10-18T12:50:34;102681.56;;;14.74;86.65
20043;BME280;10182;52.896;6.496;2022-10-18T12:55:38;102682.59;;;14.95;87.57
20043;BME280;10182;52.896;6.496;2022-10-18T13:00:58;102688.28;;;15.11;85.77
20043;BME280;10182;52.896;6.496;2022-10-18T13:06:01;102679.53;;;15.33;84.80
20043;BME280;10182;52.896;6.496;2022-10-18T13:16:36;102688.47;;;14.80;84.31
20043;BME280;10182;52.896;6.496;2022-10-18T13:21:46;102696.00;;;14.94;82.80
20043;BME280;10182;52.896;6.496;2022-10-18T13:27:11;102685.25;;;15.22;83.04
20043;BME280;10182;52.896;6.496;2022-10-18T13:32:23;102695.09;;;15.45;85.22
20043;BME280;10182;52.896;6.496;2022-10-18T13:37:28;102692.72;;;15.12;85.61
20043;BME280;10182;52.896;6.496;2022-10-18T13:42:31;102701.25;;;14.70;86.36
20043;BME280;10182;52.896;6.496;2022-10-18T13:47:37;102698.31;;;14.49;88.34
20043;BME280;10182;52.896;6.496;2022-10-18T13:58:17;102702.78;;;14.20;89.68
20043;BME280;10182;52.896;6.496;2022-10-18T14:03:41;102698.59;;;14.12;89.82
20043;BME280;10182;52.896;6.496;2022-10-18T14:08:45;102700.03;;;14.24;89.70
20043;BME280;10182;52.896;6.496;2022-10-18T14:13:53;102700.59;;;14.33;89.27
20043;BME280;10182;52.896;6.496;2022-10-18T14:19:03;102696.75;;;14.44;89.34
20043;BME280;10182;52.896;6.496;2022-10-18T14:24:15;102704.53;;;14.50;87.34
20043;BME280;10182;52.896;6.496;2022-10-18T14:29:18;102701.97;;;14.47;83.44
20043;BME280;10182;52.896;6.496;2022-10-18T14:34:22;102704.69;;;14.45;83.65
20043;BME280;10182;52.896;6.496;2022-10-18T14:39:25;102710.28;;;14.36;83.80
20043;BME280;10182;52.896;6.496;2022-10-18T14:44:30;102711.94;;;14.40;83.23
20043;BME280;10182;52.896;6.496;2022-10-18T14:49:41;102708.25;;;14.44;83.00
20043;BME280;10182;52.896;6.496;2022-10-18T14:54:44;102709.22;;;14.42;82.52
20043;BME280;10182;52.896;6.496;2022-10-18T14:59:47;102718.41;;;14.33;82.94
20043;BME280;10182;52.896;6.496;2022-10-18T15:04:57;102724.75;;;14.29;81.20
20043;BME280;10182;52.896;6.496;2022-10-18T15:10:01;102725.81;;;14.23;83.44
20043;BME280;10182;52.896;6.496;2022-10-18T15:15:04;102709.94;;;14.18;84.98
20043;BME280;10182;52.896;6.496;2022-10-18T15:20:20;102715.53;;;14.09;84.29
20043;BME280;10182;52.896;6.496;2022-10-18T15:25:25;102713.25;;;13.97;85.18
20043;BME280;10182;52.896;6.496;2022-10-18T15:30:36;102709.78;;;13.95;84.80
20043;BME280;10182;52.896;6.496;2022-10-18T15:35:41;102692.94;;;13.94;85.01
20043;BME280;10182;52.896;6.496;2022-10-18T15:40:43;102695.72;;;13.90;85.99
20043;BME280;10182;52.896;6.496;2022-10-18T15:45:45;102691.66;;;13.76;87.38
20043;BME280;10182;52.896;6.496;2022-10-18T15:50:50;102690.06;;;13.70;87.93
20043;BME280;10182;52.896;6.496;2022-10-18T15:55:53;102697.34;;;13.64;89.11
20043;BME280;10182;52.896;6.496;2022-10-18T16:00:59;102694.06;;;13.54;89.27
20043;BME280;10182;52.896;6.496;2022-10-18T16:06:05;102710.94;;;13.54;90.18
20043;BME280;10182;52.896;6.496;2022-10-18T16:11:08;102699.75;;;13.42;91.85
20043;BME280;10182;52.896;6.496;2022-10-18T16:16:15;102701.75;;;13.32;93.60
20043;BME280;10182;52.896;6.496;2022-10-18T16:21:21;102704.59;;;13.24;94.63
20043;BME280;10182;52.896;6.496;2022-10-18T16:26:23;102719.84;;;13.19;94.33
20043;BME280;10182;52.896;6.496;2022-10-18T16:31:27;102721.72;;;13.15;95.14
20043;BME280;10182;52.896;6.496;2022-10-18T16:36:31;102733.47;;;13.05;96.81
20043;BME280;10182;52.896;6.496;2022-10-18T16:41:33;102733.63;;;13.00;97.93
20043;BME280;10182;52.896;6.496;2022-10-18T16:46:35;102739.19;;;12.90;97.80
20043;BME280;10182;52.896;6.496;2022-10-18T16:51:38;102743.91;;;12.78;99.63
20043;BME280;10182;52.896;6.496;2022-10-18T16:56:40;102744.91;;;12.74;100.00
20043;BME280;10182;52.896;6.496;2022-10-18T17:01:41;102755.72;;;12.66;100.00
20043;BME280;10182;52.896;6.496;2022-10-18T17:06:44;102760.38;;;12.57;100.00
20043;BME280;10182;52.896;6.496;2022-10-18T17:11:48;102763.28;;;12.46;100.00
20043;BME280;10182;52.896;6.496;2022-10-18T17:16:50;102771.31;;;12.43;100.00
20043;BME280;10182;52.896;6.496;2022-10-18T17:21:55;102782.03;;;12.38;100.00
20043;BME280;10182;52.896;6.496;2022-10-18T17:26:57;102780.31;;;12.37;100.00
20043;BME280;10182;52.896;6.496;2022-10-18T17:31:59;102786.56;;;12.34;100.00
20043;BME280;10182;52.896;6.496;2022-10-18T17:37:02;102788.50;;;12.26;100.00
20043;BME280;10182;52.896;6.496;2022-10-18T17:42:04;102793.78;;;12.28;100.00
20043;BME280;10182;52.896;6.496;2022-10-18T17:47:06;102799.22;;;12.22;99.11
20043;BME280;10182;52.896;6.496;2022-10-18T17:52:09;102802.03;;;12.15;99.14
20043;BME280;10182;52.896;6.496;2022-10-18T17:57:11;102800.28;;;12.13;99.90
20043;BME280;10182;52.896;6.496;2022-10-18T18:02:13;102810.28;;;12.01;98.87
20043;BME280;10182;52.896;6.496;2022-10-18T18:07:15;102808.59;;;11.96;97.04
20043;BME280;10182;52.896;6.496;2022-10-18T18:12:17;102813.13;;;11.88;94.53
20043;BME280;10182;52.896;6.496;2022-10-18T18:17:19;102819.34;;;11.88;92.77
20043;BME280;10182;52.896;6.496;2022-10-18T18:22:22;102818.34;;;11.94;91.29
20043;BME280;10182;52.896;6.496;2022-10-18T18:27:23;102820.19;;;11.90;90.89
20043;BME280;10182;52.896;6.496;2022-10-18T18:32:25;102830.88;;;11.87;90.16
20043;BME280;10182;52.896;6.496;2022-10-18T18:37:29;102830.09;;;11.80;90.46
20043;BME280;10182;52.896;6.496;2022-10-18T18:42:30;102839.66;;;11.91;89.19
20043;BME280;10182;52.896;6.496;2022-10-18T18:47:32;102831.72;;;11.88;89.06
20043;BME280;10182;52.896;6.496;2022-10-18T18:52:36;102824.75;;;11.82;89.81
20043;BME280;10182;52.896;6.496;2022-10-18T18:57:37;102834.47;;;11.83;89.81
20043;BME280;10182;52.896;6.496;2022-10-18T19:02:39;102820.38;;;11.79;91.01
20043;BME280;10182;52.896;6.496;2022-10-18T19:07:42;102826.63;;;11.78;91.37
20043;BME280;10182;52.896;6.496;2022-10-18T19:12:44;102818.63;;;11.80;91.09
20043;BME280;10182;52.896;6.496;2022-10-18T19:17:46;102825.75;;;11.76;92.22
20043;BME280;10182;52.896;6.496;2022-10-18T19:22:49;102829.47;;;11.67;91.70
20043;BME280;10182;52.896;6.496;2022-10-18T19:27:51;102826.72;;;11.72;91.19
20043;BME280;10182;52.896;6.496;2022-10-18T19:32:53;102819.91;;;11.57;93.29
20043;BME280;10182;52.896;6.496;2022-10-18T19:37:59;102831.56;;;11.48;93.99
20043;BME280;10182;52.896;6.496;2022-10-18T19:43:00;102820.19;;;11.42;93.82
20043;BME280;10182;52.896;6.496;2022-10-18T19:48:02;102825.53;;;11.40;93.48
20043;BME280;10182;52.896;6.496;2022-10-18T19:53:05;102811.50;;;11.32;94.36
20043;BME280;10182;52.896;6.496;2022-10-18T19:58:07;102817.66;;;11.34;93.70
20043;BME280;10182;52.896;6.496;2022-10-18T20:03:09;102822.09;;;11.33;94.28
20043;BME280;10182;52.896;6.496;2022-10-18T20:08:12;102821.19;;;11.34;94.77
20043;BME280;10182;52.896;6.496;2022-10-18T20:13:13;102834.38;;;11.39;95.27
20043;BME280;10182;52.896;6.496;2022-10-18T20:18:17;102839.75;;;11.36;95.47
20043;BME280;10182;52.896;6.496;2022-10-18T20:23:20;102833.56;;;11.34;96.27
20043;BME280;10182;52.896;6.496;2022-10-18T20:28:22;102835.31;;;11.35;95.72
20043;BME280;10182;52.896;6.496;2022-10-18T20:33:24;102835.38;;;11.32;96.01
20043;BME280;10182;52.896;6.496;2022-10-18T20:38:29;102832.78;;;11.27;97.58
20043;BME280;10182;52.896;6.496;2022-10-18T20:43:31;102836.47;;;11.18;98.45
20043;BME280;10182;52.896;6.496;2022-10-18T20:48:34;102840.91;;;11.16;98.93
20043;BME280;10182;52.896;6.496;2022-10-18T20:53:37;102834.84;;;11.11;99.61
20043;BME280;10182;52.896;6.496;2022-10-18T20:58:41;102826.88;;;11.11;99.67
20043;BME280;10182;52.896;6.496;2022-10-18T21:03:44;102829.47;;;11.14;99.57
20043;BME280;10182;52.896;6.496;2022-10-18T21:08:51;102825.06;;;11.13;100.00
20043;BME280;10182;52.896;6.496;2022-10-18T21:13:55;102828.72;;;11.06;100.00
20043;BME280;10182;52.896;6.496;2022-10-18T21:19:00;102832.31;;;11.02;100.00
20043;BME280;10182;52.896;6.496;2022-10-18T21:24:04;102845.47;;;11.08;100.00
20043;BME280;10182;52.896;6.496;2022-10-18T21:29:06;102835.66;;;11.13;100.00
20043;BME280;10182;52.896;6.496;2022-10-18T21:34:11;102846.25;;;11.15;100.00
20043;BME280;10182;52.896;6.496;2022-10-18T21:39:16;102847.16;;;11.15;100.00
20043;BME280;10182;52.896;6.496;2022-10-18T21:44:19;102848.88;;;11.16;100.00
20043;BME280;10182;52.896;6.496;2022-10-18T21:49:20;102846.19;;;11.18;100.00
20043;BME280;10182;52.896;6.496;2022-10-18T21:54:27;102842.66;;;11.19;100.00
20043;BME280;10182;52.896;6.496;2022-10-18T21:59:29;102849.69;;;11.22;100.00
20043;BME280;10182;52.896;6.496;2022-10-18T22:04:31;102847.03;;;11.22;100.00
20043;BME280;10182;52.896;6.496;2022-10-18T22:09:36;102841.75;;;11.20;100.00
20043;BME280;10182;52.896;6.496;2022-10-18T22:14:38;102840.91;;;11.16;100.00
20043;BME280;10182;52.896;6.496;2022-10-18T22:19:39;102830.34;;;11.15;100.00
20043;BME280;10182;52.896;6.496;2022-10-18T22:24:44;102823.38;;;11.08;100.00
20043;BME280;10182;52.896;6.496;2022-10-18T22:29:45;102820.03;;;10.96;100.00
20043;BME280;10182;52.896;6.496;2022-10-18T22:34:47;102814.91;;;10.84;100.00
20043;BME280;10182;52.896;6.496;2022-10-18T22:39:50;102821.25;;;10.72;100.00
20043;BME280;10182;52.896;6.496;2022-10-18T22:44:52;102817.88;;;10.62;100.00
20043;BME280;10182;52.896;6.496;2022-10-18T22:49:53;102804.66;;;10.59;100.00
20043;BME280;10182;52.896;6.496;2022-10-18T22:54:56;102804.78;;;10.52;100.00
20043;BME280;10182;52.896;6.496;2022-10-18T22:59:58;102801.34;;;10.43;100.00
20043;BME280;10182;52.896;6.496;2022-10-18T23:04:59;102808.53;;;10.30;100.00
20043;BME280;10182;52.896;6.496;2022-10-18T23:10:03;102797.25;;;10.16;100.00
20043;BME280;10182;52.896;6.496;2022-10-18T23:15:06;102801.78;;;10.03;100.00
20043;BME280;10182;52.896;6.496;2022-10-18T23:20:09;102804.59;;;9.92;100.00
20043;BME280;10182;52.896;6.496;2022-10-18T23:25:12;102806.47;;;9.81;100.00
20043;BME280;10182;52.896;6.496;2022-10-18T23:30:13;102799.53;;;9.69;100.00
20043;BME280;10182;52.896;6.496;2022-10-18T23:35:16;102790.81;;;9.58;100.00
20043;BME280;10182;52.896;6.496;2022-10-18T23:40:19;102789.13;;;9.51;100.00
20043;BME280;10182;52.896;6.496;2022-10-18T23:45:20;102809.53;;;9.38;100.00
20043;BME280;10182;52.896;6.496;2022-10-18T23:50:22;102806.16;;;9.19;100.00
20043;BME280;10182;52.896;6.496;2022-10-18T23:55:25;102809.75;;;9.10;100.00
